Terminal Aerodrome Forecast
Issued by NWS

Home | Current Version | Previous Version | Text Only | Print | Product List | Glossary On
Versions: 1 2 3 4 5 6 7 8 9 10 11 12 13 14
000
FTUS46 KOTX 182320
TAFPUW
TAF
KPUW 182320Z 1900/1924 24012G22KT P6SM BKN060 BKN200
     FM190200 22007KT P6SM FEW060 FEW250
     FM190800 12007KT P6SM SCT250
     FM191300 10014KT P6SM SCT100 BKN200
     FM192300 24015G26KT P6SM SCT080 BKN100 BKN200=

USA.gov is the U.S. government's official web portal to all federal, state and local government web resources and services.